Time;durP1;ratioP1;P1;durP2;ratioP2;P2;SDS_P1;SDS_P2;PMS_P1;PMS_P2;Temp;Humidity;BMP_temperature;BMP_pressure;BME280_temperature;BME280_humidity;BME280_pressure;Samples;Min_cycle;Max_cycle;Signal;HPM_P1;HPM_P2
2022/08/14 00:00:15;;;;;;;8.70;6.00;;;26.30;99.90;;;;;;5051844;28;20028;-72
2022/08/14 00:02:41;;;;;;;8.45;5.50;;;26.10;99.90;;;;;;5054180;28;20047;-72
2022/08/14 00:05:10;;;;;;;11.38;6.00;;;26.00;99.90;;;;;;5052211;28;20025;-72
2022/08/14 00:07:37;;;;;;;11.77;6.35;;;26.00;99.90;;;;;;5051877;28;20045;-71
2022/08/14 00:10:06;;;;;;;12.18;6.40;;;26.00;99.90;;;;;;5053587;28;20040;-72
2022/08/14 00:12:35;;;;;;;10.82;6.28;;;26.10;99.90;;;;;;5053447;28;20025;-71
2022/08/14 00:15:05;;;;;;;16.10;6.85;;;26.00;99.90;;;;;;5053469;28;20040;-72
2022/08/14 00:17:31;;;;;;;10.60;7.85;;;26.00;99.90;;;;;;5053602;28;20032;-72
2022/08/14 00:19:57;;;;;;;13.90;8.93;;;26.00;99.90;;;;;;5053319;28;20021;-72
2022/08/14 00:22:23;;;;;;;11.43;8.18;;;25.90;99.90;;;;;;5053303;28;20082;-72
2022/08/14 00:24:49;;;;;;;13.30;8.73;;;25.90;99.90;;;;;;5053302;28;20020;-72
2022/08/14 00:27:15;;;;;;;13.32;8.27;;;25.80;99.90;;;;;;5052763;28;20041;-71
2022/08/14 00:29:41;;;;;;;14.45;8.40;;;25.80;99.90;;;;;;5053345;28;20029;-71
2022/08/14 00:32:08;;;;;;;13.20;8.77;;;25.80;99.90;;;;;;5053070;28;20373;-72
2022/08/14 00:34:33;;;;;;;;;;;25.70;99.90;;;;;;5053827;28;20029;-72
2022/08/14 00:36:59;;;;;;;;;;;25.70;99.90;;;;;;5053513;28;20497;-72
2022/08/14 00:39:26;;;;;;;15.18;7.35;;;25.70;99.90;;;;;;5053209;28;19905;-71
2022/08/14 00:41:52;;;;;;;11.85;6.72;;;25.70;99.90;;;;;;5052863;28;20138;-72
2022/08/14 00:44:20;;;;;;;9.98;5.93;;;25.70;99.90;;;;;;5053020;28;20106;-72
2022/08/14 00:46:48;;;;;;;12.48;6.53;;;25.80;99.90;;;;;;5053314;28;20128;-72
2022/08/14 00:49:14;;;;;;;9.35;6.15;;;25.80;99.90;;;;;;5053262;28;20110;-73
2022/08/14 00:51:42;;;;;;;12.77;6.65;;;25.80;99.90;;;;;;5053064;28;20106;-72
2022/08/14 00:54:09;;;;;;;12.25;6.28;;;25.80;99.90;;;;;;5051973;28;20055;-72
2022/08/14 00:56:36;;;;;;;10.35;5.70;;;25.90;99.90;;;;;;5053211;28;20104;-72
2022/08/14 00:59:04;;;;;;;9.98;5.40;;;25.90;99.90;;;;;;5053112;28;20052;-72
2022/08/14 01:01:32;;;;;;;8.65;5.45;;;25.90;99.90;;;;;;5052822;28;20146;-72
2022/08/14 01:04:00;;;;;;;8.95;5.10;;;25.90;99.90;;;;;;5052712;28;20367;-72
2022/08/14 01:06:28;;;;;;;15.27;7.05;;;26.00;99.90;;;;;;5052731;28;20013;-73
2022/08/14 01:08:54;;;;;;;10.93;6.88;;;26.00;99.90;;;;;;5052445;28;20120;-72
2022/08/14 01:11:21;;;;;;;12.07;6.70;;;25.90;99.90;;;;;;5052780;28;20044;-72
2022/08/14 01:13:51;;;;;;;9.98;6.10;;;25.90;99.90;;;;;;5052490;28;20431;-73
2022/08/14 01:16:19;;;;;;;11.55;6.32;;;25.90;99.90;;;;;;5053198;28;20485;-72
2022/08/14 01:21:31;;;;;;;10.23;5.78;;;25.90;99.90;;;;;;5052584;28;20055;-73
2022/08/14 01:23:58;;;;;;;9.43;5.25;;;25.90;99.90;;;;;;5051471;28;20092;-72
2022/08/14 01:26:27;;;;;;;7.47;4.63;;;25.90;99.90;;;;;;5052265;28;20069;-72
2022/08/14 01:28:56;;;;;;;7.18;4.75;;;26.00;99.90;;;;;;5052260;28;20102;-72
2022/08/14 01:31:37;;;;;;;8.55;5.28;;;25.90;99.90;;;;;;5052289;28;20116;-73
2022/08/14 01:34:05;;;;;;;6.80;4.82;;;26.00;99.90;;;;;;5052266;28;20082;-72
2022/08/14 01:36:35;;;;;;;7.53;4.97;;;26.00;99.90;;;;;;5052257;28;20179;-72
2022/08/14 01:39:04;;;;;;;6.68;4.85;;;26.00;99.90;;;;;;5052057;28;20510;-72
2022/08/14 01:41:31;;;;;;;6.32;4.90;;;26.00;99.90;;;;;;5052082;28;20485;-73
2022/08/14 01:44:00;;;;;;;;;;;25.90;99.90;;;;;;5051035;28;20331;-73
2022/08/14 01:46:33;;;;;;;9.70;4.82;;;25.80;99.90;;;;;;5052287;28;19904;-73
2022/08/14 01:49:00;;;;;;;9.55;4.60;;;25.80;99.90;;;;;;5051872;28;20036;-73
2022/08/14 01:51:27;;;;;;;8.25;4.47;;;25.80;99.90;;;;;;5051896;28;20044;-73
2022/08/14 01:54:04;;;;;;;9.13;5.10;;;25.80;99.90;;;;;;5051838;28;20029;-72
2022/08/14 01:56:36;;;;;;;7.05;4.45;;;25.70;99.90;;;;;;5052305;28;20021;-73
2022/08/14 01:59:28;;;;;;;10.57;5.20;;;25.60;99.90;;;;;;5050867;28;20127;-73
2022/08/14 02:01:57;;;;;;;7.65;4.80;;;25.50;99.90;;;;;;5051757;28;20021;-73
2022/08/14 02:04:25;;;;;;;8.88;5.05;;;25.50;99.90;;;;;;5051238;28;20033;-72
2022/08/14 02:06:52;;;;;;;9.77;5.15;;;25.50;99.90;;;;;;5051701;28;20025;-73
2022/08/14 02:09:22;;;;;;;7.57;4.75;;;25.50;99.90;;;;;;5050026;28;20037;-73
2022/08/14 02:11:51;;;;;;;9.52;4.82;;;25.60;99.90;;;;;;5051856;28;20025;-72
2022/08/14 02:14:18;;;;;;;13.05;6.00;;;25.50;99.90;;;;;;5051342;28;20039;-73
2022/08/14 02:16:51;;;;;;;12.07;6.25;;;25.50;99.90;;;;;;5051417;28;20013;-73
2022/08/14 02:19:24;;;;;;;13.05;7.10;;;25.40;99.90;;;;;;5051824;28;20033;-72
2022/08/14 02:21:53;;;;;;;11.13;7.00;;;25.50;99.90;;;;;;5051510;28;20048;-73
2022/08/14 02:24:22;;;;;;;10.35;7.07;;;25.40;99.90;;;;;;5049779;28;20371;-72
2022/08/14 02:26:50;;;;;;;13.00;7.45;;;25.30;99.90;;;;;;5050999;28;20073;-73
2022/08/14 02:29:21;;;;;;;14.30;7.25;;;25.30;99.90;;;;;;5051005;28;20047;-73
2022/08/14 02:31:50;;;;;;;13.10;8.10;;;25.30;99.90;;;;;;5051352;28;20132;-73
2022/08/14 02:34:28;;;;;;;11.98;7.35;;;25.30;99.90;;;;;;5050911;28;20079;-73
2022/08/14 02:37:01;;;;;;;10.52;6.68;;;25.20;99.90;;;;;;5051256;28;20031;-72
2022/08/14 02:39:28;;;;;;;11.13;6.30;;;25.20;99.90;;;;;;5051147;28;20028;-72
2022/08/14 02:41:55;;;;;;;9.20;6.25;;;25.20;99.90;;;;;;5050722;28;20033;-73
2022/08/14 02:44:22;;;;;;;9.05;6.97;;;25.20;99.90;;;;;;5051037;28;20371;-73
2022/08/14 02:46:49;;;;;;;14.90;7.40;;;25.30;99.90;;;;;;5050574;28;20064;-73
2022/08/14 02:49:16;;;;;;;9.85;7.38;;;25.20;99.90;;;;;;5050845;28;20334;-72
2022/08/14 02:51:48;;;;;;;10.48;7.05;;;25.20;99.90;;;;;;5050670;28;20021;-73
2022/08/14 02:54:14;;;;;;;15.38;7.70;;;25.20;99.90;;;;;;5050609;28;20037;-73
2022/08/14 02:56:41;;;;;;;11.98;7.15;;;25.20;99.90;;;;;;5051043;28;20461;-72
2022/08/14 02:59:09;;;;;;;14.98;7.90;;;25.20;99.90;;;;;;5051039;28;20021;-72
2022/08/14 03:01:36;;;;;;;9.00;6.35;;;25.20;99.90;;;;;;5051160;28;20044;-73
2022/08/14 03:04:04;;;;;;;10.98;5.78;;;25.20;99.90;;;;;;5050617;28;20021;-73
2022/08/14 03:06:31;;;;;;;14.63;5.60;;;25.20;99.90;;;;;;5050656;28;20032;-72
2022/08/14 03:08:58;;;;;;;12.25;5.65;;;25.20;99.90;;;;;;5050698;28;20084;-73
2022/08/14 03:11:25;;;;;;;8.02;4.85;;;25.30;99.90;;;;;;5050605;28;20102;-72
2022/08/14 03:13:51;;;;;;;;;;;25.30;99.90;;;;;;5050976;28;20051;-73
2022/08/14 03:16:23;;;;;;;9.00;4.30;;;25.20;99.90;;;;;;5051752;28;19905;-73
2022/08/14 03:18:53;;;;;;;11.35;4.53;;;25.20;99.90;;;;;;5055082;28;20428;-73
2022/08/14 03:21:21;;;;;;;8.10;3.90;;;25.20;99.90;;;;;;5054966;28;20453;-72
2022/08/14 03:23:50;;;;;;;9.30;4.78;;;25.20;99.90;;;;;;5054452;28;20390;-72
2022/08/14 03:26:19;;;;;;;9.57;4.00;;;25.30;99.90;;;;;;5054142;28;20033;-72
2022/08/14 03:28:48;;;;;;;12.68;4.60;;;25.40;99.90;;;;;;5052886;28;20127;-72
2022/08/14 03:31:15;;;;;;;9.15;5.25;;;25.40;99.90;;;;;;5054554;28;20063;-72
2022/08/14 03:33:41;;;;;;;;;;;25.40;99.90;;;;;;5054675;28;20032;-72
2022/08/14 03:36:13;;;;;;;6.50;3.70;;;25.40;99.90;;;;;;5054692;28;20030;-72
2022/08/14 03:38:41;;;;;;;9.50;3.72;;;25.30;99.90;;;;;;5054275;28;20489;-72
2022/08/14 03:41:18;;;;;;;7.13;3.97;;;25.30;99.90;;;;;;5054182;28;20473;-72
2022/08/14 03:43:51;;;;;;;7.28;3.95;;;25.30;99.90;;;;;;5054294;28;20465;-72
2022/08/14 03:46:17;;;;;;;9.82;4.30;;;25.30;99.90;;;;;;5054511;28;20017;-72
2022/08/14 03:48:44;;;;;;;;;;;25.30;99.90;;;;;;5054173;28;20041;-72
2022/08/14 03:51:12;;;;;;;7.05;3.67;;;25.30;99.90;;;;;;5054195;28;20340;-72
2022/08/14 03:53:43;;;;;;;8.73;4.28;;;25.30;99.90;;;;;;5054119;28;20020;-72
2022/08/14 03:56:17;;;;;;;9.50;3.97;;;25.30;99.90;;;;;;5054068;28;20056;-72
2022/08/14 03:58:49;;;;;;;7.47;4.00;;;25.30;99.90;;;;;;5054165;28;20025;-72
2022/08/14 04:01:20;;;;;;;6.50;4.07;;;25.40;99.90;;;;;;5052709;28;20028;-72
2022/08/14 04:03:51;;;;;;;5.78;3.95;;;25.40;99.90;;;;;;5053864;28;20021;-72
2022/08/14 04:06:19;;;;;;;8.77;4.25;;;25.40;99.90;;;;;;5053898;28;20397;-71
2022/08/14 04:08:48;;;;;;;8.15;4.38;;;25.40;99.90;;;;;;5052465;28;20047;-71
2022/08/14 04:11:14;;;;;;;7.20;4.65;;;25.30;99.90;;;;;;5053573;28;20474;-72
2022/08/14 04:13:42;;;;;;;6.80;4.45;;;25.30;99.90;;;;;;5053965;28;20422;-72
2022/08/14 04:16:19;;;;;;;7.95;4.70;;;25.30;99.90;;;;;;5053465;28;20017;-72
2022/08/14 04:18:47;;;;;;;8.23;4.10;;;25.20;99.90;;;;;;5053679;28;20090;-72
2022/08/14 04:21:15;;;;;;;8.50;4.95;;;25.20;99.90;;;;;;5053747;28;20017;-72
2022/08/14 04:23:42;;;;;;;9.05;4.80;;;25.30;99.90;;;;;;5053557;28;20033;-72
2022/08/14 04:26:10;;;;;;;8.43;4.53;;;25.30;99.90;;;;;;5053279;28;20481;-72
2022/08/14 04:28:38;;;;;;;7.97;4.65;;;25.30;99.90;;;;;;5053155;28;20466;-73
2022/08/14 04:31:05;;;;;;;13.02;5.50;;;25.30;99.90;;;;;;5053344;28;20029;-72
2022/08/14 04:33:31;;;;;;;10.52;5.45;;;25.20;99.90;;;;;;5053250;28;20033;-73
2022/08/14 04:35:58;;;;;;;13.02;5.57;;;25.20;99.90;;;;;;5053198;28;20021;-72
2022/08/14 04:43:53;;;;;;;9.55;4.35;;;25.30;99.90;;;;;;5053441;28;20090;-72
2022/08/14 04:46:21;;;;;;;10.40;4.45;;;25.30;99.90;;;;;;5053222;28;20052;-72
2022/08/14 04:48:47;;;;;;;7.65;4.55;;;25.30;99.90;;;;;;5052737;28;20477;-72
2022/08/14 04:51:16;;;;;;;7.30;3.95;;;25.30;99.90;;;;;;5052862;28;20465;-72
2022/08/14 04:53:45;;;;;;;6.28;4.00;;;25.30;99.90;;;;;;5052642;28;20033;-72
2022/08/14 04:56:13;;;;;;;6.93;3.90;;;25.40;99.90;;;;;;5052868;28;20478;-72
2022/08/14 04:58:41;;;;;;;7.95;4.65;;;25.40;99.90;;;;;;5052912;28;20025;-71
2022/08/14 05:01:09;;;;;;;8.25;4.00;;;25.40;99.90;;;;;;5052968;28;20021;-72
2022/08/14 05:03:37;;;;;;;7.70;4.20;;;25.50;99.90;;;;;;5052976;28;20052;-72
2022/08/14 05:06:05;;;;;;;9.23;4.85;;;25.60;99.90;;;;;;5052960;28;20021;-72
2022/08/14 05:08:33;;;;;;;10.75;5.55;;;25.80;99.90;;;;;;5052541;28;20136;-72
2022/08/14 05:11:01;;;;;;;10.18;6.65;;;25.70;99.90;;;;;;5052546;28;20029;-71
2022/08/14 05:13:29;;;;;;;8.00;5.95;;;25.60;99.90;;;;;;5052517;28;20040;-71
2022/08/14 05:15:57;;;;;;;10.10;6.03;;;25.50;99.90;;;;;;5052255;28;20043;-72
2022/08/14 05:18:34;;;;;;;10.32;6.07;;;25.40;99.90;;;;;;5052514;28;20136;-73
2022/08/14 05:21:02;;;;;;;9.38;5.07;;;25.50;99.90;;;;;;5052676;28;20025;-73
2022/08/14 05:23:31;;;;;;;8.65;4.25;;;26.30;99.90;;;;;;5052731;28;20021;-73
2022/08/14 05:26:01;;;;;;;7.95;4.10;;;27.10;99.90;;;;;;5052503;28;20028;-73
2022/08/14 05:28:30;;;;;;;6.25;3.70;;;27.90;99.90;;;;;;5052145;28;20037;-73
2022/08/14 05:31:01;;;;;;;8.48;3.42;;;28.60;99.90;;;;;;5052424;28;20090;-73
2022/08/14 05:33:29;;;;;;;8.23;3.58;;;29.20;99.90;;;;;;5052312;28;20118;-73
2022/08/14 05:36:00;;;;;;;5.85;3.20;;;29.50;99.90;;;;;;5051995;28;20021;-71
2022/08/14 05:38:32;;;;;;;5.82;3.10;;;29.70;99.90;;;;;;5051760;28;20039;-72
2022/08/14 05:41:08;;;;;;;6.53;3.20;;;30.20;99.90;;;;;;5051639;28;20028;-72
2022/08/14 05:43:35;;;;;;;5.32;2.90;;;30.90;99.90;;;;;;5052093;28;20457;-72
2022/08/14 05:46:01;;;;;;;6.45;3.53;;;31.90;99.90;;;;;;5051873;28;20029;-72
2022/08/14 05:48:28;;;;;;;6.07;3.22;;;32.40;99.90;;;;;;5051741;28;20044;-72
2022/08/14 05:50:55;;;;;;;8.05;2.65;;;33.10;99.90;;;;;;5051821;28;20031;-72
2022/08/14 05:53:23;;;;;;;6.50;2.75;;;34.00;99.90;;;;;;5051653;28;20033;-72
2022/08/14 05:55:54;;;;;;;6.32;3.10;;;34.00;99.90;;;;;;5052068;28;20441;-72
2022/08/14 05:58:21;;;;;;;5.18;3.05;;;34.20;99.90;;;;;;5051625;28;20033;-72
2022/08/14 06:00:49;;;;;;;6.28;3.15;;;34.20;99.90;;;;;;5051544;28;20043;-72
2022/08/14 06:03:17;;;;;;;8.23;3.42;;;35.10;99.90;;;;;;5051716;28;20078;-72
2022/08/14 06:05:45;;;;;;;7.88;2.90;;;34.90;99.90;;;;;;5051627;28;20027;-72
2022/08/14 06:08:26;;;;;;;6.53;3.35;;;35.40;99.90;;;;;;5051595;28;20033;-72
2022/08/14 06:10:55;;;;;;;6.40;2.88;;;34.90;99.90;;;;;;5051604;28;20021;-72
2022/08/14 06:13:22;;;;;;;7.95;3.25;;;33.20;99.90;;;;;;5051108;28;20052;-73
2022/08/14 06:15:54;;;;;;;6.15;3.22;;;32.40;99.90;;;;;;5050994;28;20032;-72
2022/08/14 06:18:20;;;;;;;8.77;3.67;;;32.50;99.90;;;;;;5051360;28;20106;-72
2022/08/14 06:20:46;;;;;;;8.40;2.90;;;33.00;99.90;;;;;;5051575;28;20021;-73
2022/08/14 06:23:12;;;;;;;;;;;33.90;99.90;;;;;;5051835;28;20102;-72
2022/08/14 06:25:38;;;;;;;8.80;2.75;;;34.20;99.90;;;;;;5049901;28;20308;-71
2022/08/14 06:28:05;;;;;;;6.35;2.63;;;35.00;99.90;;;;;;5051398;28;20041;-71
2022/08/14 06:30:33;;;;;;;4.80;2.28;;;35.30;98.10;;;;;;5051311;28;20120;-71
2022/08/14 06:33:00;;;;;;;7.10;2.58;;;36.60;96.80;;;;;;5051357;28;20032;-72
2022/08/14 06:35:26;;;;;;;6.82;2.20;;;37.90;94.40;;;;;;5051193;28;20025;-72
2022/08/14 06:37:58;;;;;;;7.10;2.40;;;38.20;91.80;;;;;;5051597;28;20029;-72
2022/08/14 06:40:28;;;;;;;5.10;1.98;;;38.20;92.40;;;;;;5051313;28;20021;-72
2022/08/14 06:42:57;;;;;;;4.25;2.10;;;38.60;91.70;;;;;;5051294;28;20374;-72
2022/08/14 06:45:23;;;;;;;4.47;2.00;;;38.80;91.10;;;;;;5051276;28;20028;-73
2022/08/14 06:47:49;;;;;;;6.15;2.13;;;38.80;90.00;;;;;;5051548;28;20029;-72
2022/08/14 06:50:17;;;;;;;4.70;2.10;;;38.60;89.50;;;;;;5051166;28;20036;-72
2022/08/14 06:52:44;;;;;;;7.90;2.28;;;38.60;90.30;;;;;;5051079;28;20405;-72
2022/08/14 06:55:11;;;;;;;7.88;2.30;;;39.40;89.60;;;;;;5051129;28;20040;-73
2022/08/14 06:57:44;;;;;;;5.55;2.17;;;40.50;87.70;;;;;;5049430;28;20111;-72
2022/08/14 07:00:39;;;;;;;5.95;1.95;;;40.00;87.70;;;;;;5049667;28;20025;-72
2022/08/14 07:05:49;;;;;;;;;;;40.70;85.60;;;;;;5051659;28;20060;-73
2022/08/14 07:08:21;;;;;;;5.50;2.20;;;41.80;83.60;;;;;;5050471;28;20368;-73
2022/08/14 07:10:52;;;;;;;4.72;2.20;;;41.10;85.10;;;;;;5050283;28;20426;-73
2022/08/14 07:13:20;;;;;;;3.80;2.05;;;41.60;83.20;;;;;;5050062;28;20032;-73
2022/08/14 07:15:49;;;;;;;9.15;2.22;;;42.40;83.20;;;;;;5050554;28;20025;-73
2022/08/14 07:18:22;;;;;;;3.97;1.77;;;43.40;80.10;;;;;;5050321;28;20449;-73
2022/08/14 07:20:49;;;;;;;3.47;1.80;;;43.30;77.10;;;;;;5050558;28;20108;-73
2022/08/14 07:23:15;;;;;;;5.18;2.15;;;42.90;77.50;;;;;;5050670;28;20112;-73
2022/08/14 07:25:43;;;;;;;6.63;2.00;;;42.50;77.70;;;;;;5051054;28;20036;-72
2022/08/14 07:28:17;;;;;;;7.03;2.20;;;42.50;78.10;;;;;;5050537;28;20471;-73
2022/08/14 07:30:44;;;;;;;4.13;2.00;;;42.00;78.30;;;;;;5050944;28;20115;-73
2022/08/14 07:33:12;;;;;;;7.57;2.20;;;41.30;79.10;;;;;;5050701;28;20453;-73
2022/08/14 07:35:39;;;;;;;5.22;1.90;;;40.70;80.00;;;;;;5050757;28;20028;-73
2022/08/14 07:38:07;;;;;;;6.35;2.30;;;40.30;80.30;;;;;;5050555;28;20033;-73
2022/08/14 07:40:33;;;;;;;7.30;2.42;;;39.90;80.50;;;;;;5050427;28;20025;-72
2022/08/14 07:43:00;;;;;;;4.90;2.20;;;39.50;81.20;;;;;;5050355;28;20605;-72
2022/08/14 07:45:27;;;;;;;6.68;2.25;;;39.20;81.90;;;;;;5050569;28;20424;-72
2022/08/14 07:47:56;;;;;;;4.65;2.40;;;38.90;82.30;;;;;;5050082;28;20376;-73
2022/08/14 07:50:23;;;;;;;8.07;2.75;;;38.50;83.10;;;;;;5050045;28;20029;-72
2022/08/14 07:52:49;;;;;;;7.97;2.70;;;38.30;83.80;;;;;;5050190;28;20087;-72
2022/08/14 07:55:17;;;;;;;12.38;2.42;;;38.40;82.10;;;;;;5049648;28;20180;-72
2022/08/14 07:57:46;;;;;;;6.18;2.30;;;38.30;80.90;;;;;;5050206;28;20021;-72
2022/08/14 08:00:18;;;;;;;5.60;2.20;;;37.90;81.50;;;;;;5050022;28;20065;-72
2022/08/14 08:02:48;;;;;;;5.30;2.35;;;37.20;81.90;;;;;;5051701;28;20024;-72
2022/08/14 08:05:15;;;;;;;5.95;2.30;;;37.30;81.70;;;;;;5054081;28;20421;-72
2022/08/14 08:07:43;;;;;;;6.18;2.38;;;37.10;81.20;;;;;;5053758;28;20105;-72
2022/08/14 08:10:30;;;;;;;5.85;2.58;;;36.00;82.40;;;;;;5053578;28;20104;-72
2022/08/14 08:13:01;;;;;;;7.47;2.90;;;35.80;83.70;;;;;;5053830;28;20021;-72
2022/08/14 08:15:31;;;;;;;5.88;2.60;;;36.10;85.20;;;;;;5053704;28;20025;-72
2022/08/14 08:17:59;;;;;;;7.72;2.75;;;36.40;87.80;;;;;;5054160;28;20090;-72
2022/08/14 08:20:27;;;;;;;7.15;2.83;;;36.70;87.90;;;;;;5054295;28;20170;-72
2022/08/14 08:22:58;;;;;;;6.57;2.75;;;36.70;88.90;;;;;;5054151;28;20029;-73
2022/08/14 08:25:27;;;;;;;5.10;2.55;;;36.80;88.20;;;;;;5054575;28;20025;-73
2022/08/14 08:27:58;;;;;;;6.15;2.50;;;36.80;88.80;;;;;;5053991;28;20082;-72
2022/08/14 08:30:25;;;;;;;6.13;2.40;;;36.70;88.90;;;;;;5054087;28;20454;-72
2022/08/14 08:32:54;;;;;;;6.20;2.72;;;36.90;87.50;;;;;;5054246;28;20533;-73
2022/08/14 08:35:25;;;;;;;5.32;2.30;;;36.80;88.50;;;;;;5053731;28;20113;-72
2022/08/14 08:37:52;;;;;;;7.50;2.60;;;36.90;87.70;;;;;;5054128;28;20021;-73
2022/08/14 08:40:27;;;;;;;4.75;2.28;;;37.00;88.10;;;;;;5053775;28;20519;-72
2022/08/14 08:42:53;;;;;;;4.53;2.08;;;37.20;87.00;;;;;;5054201;28;20048;-73
2022/08/14 08:45:20;;;;;;;9.25;2.47;;;37.00;87.00;;;;;;5053815;28;20021;-74
2022/08/14 08:47:49;;;;;;;8.32;2.10;;;37.00;86.60;;;;;;5053722;28;20106;-73
2022/08/14 08:50:21;;;;;;;6.75;2.30;;;36.50;86.90;;;;;;5053754;28;20033;-73
2022/08/14 08:52:52;;;;;;;5.22;2.08;;;36.50;86.60;;;;;;5053020;28;20124;-72
2022/08/14 08:55:39;;;;;;;4.70;1.95;;;36.50;87.40;;;;;;5052255;28;20025;-73
2022/08/14 08:58:15;;;;;;;6.05;2.00;;;36.00;87.80;;;;;;5053010;28;20104;-73
2022/08/14 09:00:44;;;;;;;;;;;35.70;89.00;;;;;;5053438;28;20060;-73
2022/08/14 09:03:18;;;;;;;5.50;2.15;;;36.00;88.00;;;;;;5052353;28;20337;-73
2022/08/14 09:05:55;;;;;;;4.65;2.03;;;36.20;87.00;;;;;;5052512;28;20049;-73
2022/08/14 09:08:26;;;;;;;6.13;2.00;;;36.10;87.30;;;;;;5052731;28;20037;-72
2022/08/14 09:10:53;;;;;;;5.80;2.22;;;36.10;87.40;;;;;;5052922;28;20104;-72
2022/08/14 09:13:23;;;;;;;7.90;2.20;;;36.10;87.70;;;;;;5052096;28;20025;-72
2022/08/14 09:15:49;;;;;;;4.63;2.00;;;36.40;86.50;;;;;;5052290;28;20062;-73
2022/08/14 09:18:18;;;;;;;5.70;2.10;;;36.50;85.60;;;;;;5052740;28;20357;-73
2022/08/14 09:20:46;;;;;;;6.72;2.13;;;36.50;85.80;;;;;;5052345;28;20114;-73
2022/08/14 09:23:13;;;;;;;6.38;2.20;;;36.50;85.70;;;;;;5052203;28;20047;-73
2022/08/14 09:25:43;;;;;;;5.55;1.90;;;36.50;84.80;;;;;;5052217;28;20025;-73
2022/08/14 09:28:10;;;;;;;6.00;2.10;;;36.50;84.50;;;;;;5052111;28;20045;-73
2022/08/14 09:30:41;;;;;;;5.88;2.33;;;36.40;85.40;;;;;;5052563;28;20106;-73
2022/08/14 09:33:33;;;;;;;7.00;2.40;;;36.30;86.30;;;;;;5052677;28;20082;-72
2022/08/14 09:36:14;;;;;;;4.63;1.98;;;36.10;87.00;;;;;;5052475;28;20412;-72
2022/08/14 09:39:10;;;;;;;6.20;1.95;;;36.10;86.10;;;;;;5052296;28;20442;-72
2022/08/14 09:42:03;;;;;;;10.48;2.20;;;36.00;84.90;;;;;;5052553;28;20466;-73
2022/08/14 09:44:38;;;;;;;4.35;2.00;;;35.40;86.10;;;;;;5052044;28;20043;-73
2022/08/14 09:47:04;;;;;;;7.75;2.35;;;35.30;86.50;;;;;;5052082;28;20049;-72
2022/08/14 09:49:41;;;;;;;8.00;2.13;;;35.00;87.80;;;;;;5051491;28;20135;-73
2022/08/14 09:52:10;;;;;;;9.43;2.00;;;34.50;87.30;;;;;;5051728;28;20426;-73
2022/08/14 09:54:41;;;;;;;4.35;2.00;;;34.60;88.10;;;;;;5051473;28;20033;-73
2022/08/14 09:57:09;;;;;;;6.97;2.33;;;34.60;87.80;;;;;;5051949;28;20462;-73
2022/08/14 09:59:45;;;;;;;5.25;2.03;;;34.60;87.10;;;;;;5051533;28;20492;-73
2022/08/14 10:02:20;;;;;;;;;;;34.70;86.40;;;;;;5052140;28;20029;-73
2022/08/14 10:05:05;;;;;;;7.47;2.15;;;34.80;87.10;;;;;;5051565;28;20380;-72
2022/08/14 10:07:34;;;;;;;8.35;1.95;;;35.00;86.50;;;;;;5051513;28;20029;-72
2022/08/14 10:10:01;;;;;;;7.10;1.90;;;34.90;85.40;;;;;;5051386;28;20029;-72
2022/08/14 10:12:47;;;;;;;4.82;2.20;;;34.90;86.30;;;;;;5051525;28;20496;-73
2022/08/14 10:15:16;;;;;;;9.10;2.28;;;35.10;85.70;;;;;;5051598;28;20033;-72
2022/08/14 10:17:42;;;;;;;5.95;1.92;;;35.20;84.70;;;;;;5051699;28;20068;-72
2022/08/14 10:20:11;;;;;;;8.02;2.22;;;35.20;83.50;;;;;;5051184;28;20060;-72
2022/08/14 10:22:37;;;;;;;4.43;2.08;;;35.00;84.20;;;;;;5051422;28;20033;-72
2022/08/14 10:25:10;;;;;;;;;;;34.90;86.20;;;;;;5051578;28;20033;-72
2022/08/14 10:27:37;;;;;;;4.53;2.25;;;34.60;88.80;;;;;;5051079;28;19920;-72
2022/08/14 10:30:11;;;;;;;6.75;2.20;;;34.40;90.40;;;;;;5051116;28;20120;-72
2022/08/14 10:32:47;;;;;;;6.32;1.88;;;34.40;90.90;;;;;;5051254;28;20035;-72
2022/08/14 10:35:13;;;;;;;;;;;34.30;90.80;;;;;;5051478;28;20473;-72
2022/08/14 10:37:46;;;;;;;6.25;2.30;;;34.40;90.70;;;;;;5051226;28;19959;-72
2022/08/14 10:40:16;;;;;;;6.75;2.40;;;34.60;89.90;;;;;;5050967;28;20029;-72
2022/08/14 10:42:42;;;;;;;9.52;2.38;;;34.60;88.10;;;;;;5050937;28;20037;-72
2022/08/14 10:45:28;;;;;;;;;;;34.50;88.10;;;;;;5051311;28;20076;-72
2022/08/14 10:47:55;;;;;;;6.35;2.25;;;34.60;88.70;;;;;;5051210;28;19905;-72
2022/08/14 10:50:37;;;;;;;8.40;2.35;;;34.80;89.70;;;;;;5051340;28;20107;-72
2022/08/14 10:53:05;;;;;;;10.32;2.53;;;34.70;89.50;;;;;;5051540;28;20422;-72
2022/08/14 10:55:38;;;;;;;6.53;2.22;;;34.70;89.80;;;;;;5051028;28;20392;-72
2022/08/14 10:58:10;;;;;;;8.18;2.17;;;34.80;89.60;;;;;;5050976;28;20192;-72
2022/08/14 11:00:38;;;;;;;6.53;2.00;;;35.00;89.30;;;;;;5050929;28;20362;-72
2022/08/14 11:03:13;;;;;;;7.90;2.47;;;35.00;89.30;;;;;;5051306;28;20492;-72
2022/08/14 11:05:42;;;;;;;10.90;2.95;;;35.20;89.50;;;;;;5051699;28;20068;-72
2022/08/14 11:08:09;;;;;;;7.22;2.40;;;35.40;88.30;;;;;;5050827;28;20033;-72
2022/08/14 11:10:48;;;;;;;7.55;2.28;;;35.50;87.30;;;;;;5050948;28;20025;-71
2022/08/14 11:13:20;;;;;;;6.00;2.10;;;35.80;86.90;;;;;;5051097;28;20029;-72
2022/08/14 11:15:50;;;;;;;6.63;2.63;;;35.90;86.50;;;;;;5050442;28;20021;-72
2022/08/14 11:18:18;;;;;;;6.28;2.22;;;35.80;87.00;;;;;;5050748;28;20029;-72
2022/08/14 11:20:54;;;;;;;10.98;2.28;;;35.90;87.70;;;;;;5050816;28;20078;-73
2022/08/14 11:23:27;;;;;;;6.97;2.35;;;35.90;88.00;;;;;;5051036;28;20033;-73
2022/08/14 11:25:55;;;;;;;8.20;2.80;;;35.90;88.20;;;;;;5050834;28;20021;-72
2022/08/14 11:28:26;;;;;;;14.30;2.40;;;36.00;87.80;;;;;;5050546;28;20119;-72
2022/08/14 11:30:55;;;;;;;3.95;2.17;;;36.10;87.60;;;;;;5050435;28;20025;-71
2022/08/14 11:33:29;;;;;;;6.40;2.20;;;36.00;88.00;;;;;;5050354;28;20036;-72
2022/08/14 11:36:00;;;;;;;11.73;2.13;;;36.10;88.10;;;;;;5050582;28;20136;-72
2022/08/14 11:38:27;;;;;;;11.55;2.60;;;36.00;89.00;;;;;;5053067;28;20116;-72
2022/08/14 11:40:57;;;;;;;5.85;2.20;;;36.00;88.90;;;;;;5053210;28;20100;-72
2022/08/14 11:43:24;;;;;;;5.47;2.30;;;36.00;90.20;;;;;;5052823;28;20039;-71
2022/08/14 11:45:51;;;;;;;7.30;2.40;;;35.60;90.60;;;;;;5054194;28;20105;-72
2022/08/14 11:48:23;;;;;;;10.30;2.35;;;35.80;91.30;;;;;;5054343;28;20083;-72
2022/08/14 11:50:53;;;;;;;5.60;2.30;;;35.90;91.00;;;;;;5054134;28;20025;-72
2022/08/14 11:53:27;;;;;;;8.02;2.15;;;35.90;91.00;;;;;;5054202;28;20021;-72
2022/08/14 11:56:01;;;;;;;5.75;2.40;;;36.00;90.60;;;;;;5054487;28;20036;-73
2022/08/14 11:58:34;;;;;;;9.30;2.72;;;36.10;91.00;;;;;;5054179;28;20032;-72
2022/08/14 12:01:05;;;;;;;9.57;2.70;;;36.10;91.10;;;;;;5052555;28;20021;-72
2022/08/14 12:03:48;;;;;;;8.52;2.50;;;36.10;90.90;;;;;;5053591;28;20056;-72
2022/08/14 12:06:18;;;;;;;4.25;2.38;;;36.00;91.30;;;;;;5053973;28;20093;-72
2022/08/14 12:08:45;;;;;;;5.97;2.20;;;36.00;91.90;;;;;;5053569;28;20036;-72
2022/08/14 12:11:12;;;;;;;5.85;2.15;;;35.90;92.20;;;;;;5053616;28;20017;-72
2022/08/14 12:13:40;;;;;;;8.48;2.63;;;35.80;92.40;;;;;;5053567;28;20036;-72
2022/08/14 12:16:12;;;;;;;5.03;2.50;;;35.80;92.50;;;;;;5053788;28;20045;-72
2022/08/14 12:18:47;;;;;;;10.73;2.60;;;35.60;92.50;;;;;;5053830;28;20025;-72
2022/08/14 12:21:26;;;;;;;10.88;2.30;;;35.60;92.40;;;;;;5053887;28;20100;-72
2022/08/14 12:24:09;;;;;;;10.52;2.90;;;35.70;92.90;;;;;;5053323;28;20080;-72
2022/08/14 12:26:36;;;;;;;8.77;2.30;;;35.60;93.50;;;;;;5053093;28;20041;-72
2022/08/14 12:29:07;;;;;;;6.20;2.28;;;35.50;94.20;;;;;;5053301;28;20068;-72
2022/08/14 12:31:34;;;;;;;4.15;2.20;;;35.60;94.40;;;;;;5053115;28;20033;-72
2022/08/14 12:34:07;;;;;;;8.05;2.38;;;35.60;94.40;;;;;;5053216;28;20029;-72
2022/08/14 12:36:34;;;;;;;7.13;2.20;;;35.50;95.00;;;;;;5053420;28;20021;-72
2022/08/14 12:39:15;;;;;;;5.25;2.10;;;35.50;94.70;;;;;;5053237;28;20052;-72
2022/08/14 12:41:55;;;;;;;7.32;2.10;;;35.50;95.10;;;;;;5053379;28;20033;-72
2022/08/14 12:44:36;;;;;;;4.95;2.40;;;35.60;94.30;;;;;;5053739;28;20410;-72
2022/08/14 12:47:13;;;;;;;6.22;2.50;;;35.10;93.90;;;;;;5053106;28;20083;-72
2022/08/14 12:49:53;;;;;;;5.47;2.60;;;34.90;94.70;;;;;;5053008;28;20040;-71
2022/08/14 12:52:32;;;;;;;8.32;2.92;;;34.80;94.70;;;;;;5053115;28;20136;-72
2022/08/14 12:55:06;;;;;;;5.55;2.55;;;35.10;94.80;;;;;;5053065;28;20075;-72
2022/08/14 12:57:43;;;;;;;6.47;2.67;;;35.30;95.10;;;;;;5053199;28;20408;-72
2022/08/14 13:00:17;;;;;;;9.80;3.00;;;34.80;95.80;;;;;;5053249;28;20031;-72
2022/08/14 13:02:46;;;;;;;8.37;2.70;;;34.90;95.90;;;;;;5052952;28;20031;-72
2022/08/14 13:05:13;;;;;;;6.25;2.90;;;35.10;96.10;;;;;;5052864;28;20079;-72
2022/08/14 13:07:41;;;;;;;7.00;2.30;;;35.30;95.70;;;;;;5052816;28;20087;-72
2022/08/14 13:10:14;;;;;;;6.20;2.55;;;35.40;94.90;;;;;;5052911;28;20515;-71
2022/08/14 13:12:41;;;;;;;5.97;2.50;;;35.30;94.30;;;;;;5052856;28;20059;-71